sensor_id;sensor_type;location;lat;lon;timestamp;pressure;altitude;pressure_sealevel;temperature;humidity
41690;BME280;27372;42.658;23.256;2023-12-22T00:00:57;92275.44;;;0.93;96.19
41690;BME280;27372;42.658;23.256;2023-12-22T00:03:22;92263.53;;;1.11;95.65
41690;BME280;27372;42.658;23.256;2023-12-22T00:05:48;92274.69;;;1.30;94.56
41690;BME280;27372;42.658;23.256;2023-12-22T00:08:13;92271.06;;;1.50;93.95
41690;BME280;27372;42.658;23.256;2023-12-22T00:10:38;92280.53;;;1.56;93.37
41690;BME280;27372;42.658;23.256;2023-12-22T00:13:04;92267.53;;;1.63;93.13
41690;BME280;27372;42.658;23.256;2023-12-22T00:15:29;92267.91;;;1.48;93.48
41690;BME280;27372;42.658;23.256;2023-12-22T00:17:55;92259.69;;;0.51;97.75
41690;BME280;27372;42.658;23.256;2023-12-22T00:20:20;92267.56;;;0.06;100.00
41690;BME280;27372;42.658;23.256;2023-12-22T00:22:45;92258.63;;;0.08;100.00
41690;BME280;27372;42.658;23.256;2023-12-22T00:25:11;92254.75;;;0.24;100.00
41690;BME280;27372;42.658;23.256;2023-12-22T00:27:37;92252.66;;;0.33;100.00
41690;BME280;27372;42.658;23.256;2023-12-22T00:30:02;92247.72;;;0.32;100.00
41690;BME280;27372;42.658;23.256;2023-12-22T00:32:28;92229.00;;;0.11;100.00
41690;BME280;27372;42.658;23.256;2023-12-22T00:34:53;92224.78;;;0.17;100.00
41690;BME280;27372;42.658;23.256;2023-12-22T00:37:18;92218.09;;;0.09;100.00
41690;BME280;27372;42.658;23.256;2023-12-22T00:39:44;92218.41;;;0.44;100.00
41690;BME280;27372;42.658;23.256;2023-12-22T00:42:09;92195.81;;;0.58;100.00
41690;BME280;27372;42.658;23.256;2023-12-22T00:44:34;92203.78;;;0.38;100.00
41690;BME280;27372;42.658;23.256;2023-12-22T00:47:00;92195.53;;;0.48;100.00
41690;BME280;27372;42.658;23.256;2023-12-22T00:49:25;92209.94;;;0.37;100.00
41690;BME280;27372;42.658;23.256;2023-12-22T00:51:51;92224.56;;;0.69;100.00
41690;BME280;27372;42.658;23.256;2023-12-22T00:54:16;92230.53;;;0.88;100.00
41690;BME280;27372;42.658;23.256;2023-12-22T00:56:41;92229.53;;;1.07;99.84
41690;BME280;27372;42.658;23.256;2023-12-22T00:59:07;92217.56;;;0.95;100.00
41690;BME280;27372;42.658;23.256;2023-12-22T01:01:32;92227.25;;;0.99;98.71
41690;BME280;27372;42.658;23.256;2023-12-22T01:03:58;92213.16;;;0.95;98.66
41690;BME280;27372;42.658;23.256;2023-12-22T01:06:23;92221.28;;;1.17;97.72
41690;BME280;27372;42.658;23.256;2023-12-22T01:08:48;92219.53;;;1.30;97.05
41690;BME280;27372;42.658;23.256;2023-12-22T01:11:18;92214.25;;;1.06;97.79
41690;BME280;27372;42.658;23.256;2023-12-22T01:13:44;92236.84;;;0.92;98.68
41690;BME280;27372;42.658;23.256;2023-12-22T01:16:09;92219.41;;;0.87;98.86
41690;BME280;27372;42.658;23.256;2023-12-22T01:18:35;92220.06;;;1.20;97.83
41690;BME280;27372;42.658;23.256;2023-12-22T01:21:00;92229.91;;;1.11;97.34
41690;BME280;27372;42.658;23.256;2023-12-22T01:23:26;92217.38;;;1.45;96.49
41690;BME280;27372;42.658;23.256;2023-12-22T01:25:51;92204.56;;;1.01;97.44
41690;BME280;27372;42.658;23.256;2023-12-22T01:28:17;92207.44;;;1.12;97.73
41690;BME280;27372;42.658;23.256;2023-12-22T01:30:42;92200.47;;;1.43;96.84
41690;BME280;27372;42.658;23.256;2023-12-22T01:33:08;92206.50;;;1.55;96.69
41690;BME280;27372;42.658;23.256;2023-12-22T01:35:33;92180.19;;;1.58;95.97
41690;BME280;27372;42.658;23.256;2023-12-22T01:37:59;92183.34;;;1.60;95.29
41690;BME280;27372;42.658;23.256;2023-12-22T01:40:24;92194.69;;;1.47;95.40
41690;BME280;27372;42.658;23.256;2023-12-22T01:42:50;92196.69;;;1.45;95.54
41690;BME280;27372;42.658;23.256;2023-12-22T01:45:15;92165.69;;;0.71;98.38
41690;BME280;27372;42.658;23.256;2023-12-22T01:47:41;92161.09;;;0.54;100.00
41690;BME280;27372;42.658;23.256;2023-12-22T01:50:08;92174.81;;;0.92;100.00
41690;BME280;27372;42.658;23.256;2023-12-22T01:52:37;92159.56;;;1.21;99.34
41690;BME280;27372;42.658;23.256;2023-12-22T01:55:04;92172.31;;;1.34;98.60
41690;BME280;27372;42.658;23.256;2023-12-22T01:57:31;92142.59;;;1.25;97.88
41690;BME280;27372;42.658;23.256;2023-12-22T01:59:56;92141.25;;;0.29;100.00
41690;BME280;27372;42.658;23.256;2023-12-22T02:02:22;92158.59;;;0.85;100.00
41690;BME280;27372;42.658;23.256;2023-12-22T02:04:47;92158.16;;;1.06;99.69
41690;BME280;27372;42.658;23.256;2023-12-22T02:07:13;92147.03;;;1.06;99.97
41690;BME280;27372;42.658;23.256;2023-12-22T02:09:38;92163.03;;;0.96;100.00
41690;BME280;27372;42.658;23.256;2023-12-22T02:12:04;92170.56;;;1.16;100.00
41690;BME280;27372;42.658;23.256;2023-12-22T02:14:30;92157.53;;;1.23;99.56
41690;BME280;27372;42.658;23.256;2023-12-22T02:22:08;92140.91;;;0.63;100.00
41690;BME280;27372;42.658;23.256;2023-12-22T02:24:34;92135.09;;;0.68;100.00
41690;BME280;27372;42.658;23.256;2023-12-22T02:29:47;92128.94;;;0.69;100.00
41690;BME280;27372;42.658;23.256;2023-12-22T02:32:21;92132.38;;;0.44;100.00
41690;BME280;27372;42.658;23.256;2023-12-22T02:34:51;92127.66;;;0.59;100.00
41690;BME280;27372;42.658;23.256;2023-12-22T02:37:18;92133.81;;;0.58;100.00
41690;BME280;27372;42.658;23.256;2023-12-22T02:39:44;92151.53;;;0.73;100.00
41690;BME280;27372;42.658;23.256;2023-12-22T02:42:10;92146.38;;;0.73;100.00
41690;BME280;27372;42.658;23.256;2023-12-22T02:44:35;92146.81;;;0.89;100.00
41690;BME280;27372;42.658;23.256;2023-12-22T02:47:01;92136.47;;;0.89;100.00
41690;BME280;27372;42.658;23.256;2023-12-22T02:49:26;92130.66;;;0.56;100.00
41690;BME280;27372;42.658;23.256;2023-12-22T02:51:51;92145.66;;;0.85;100.00
41690;BME280;27372;42.658;23.256;2023-12-22T02:54:17;92129.13;;;1.04;100.00
41690;BME280;27372;42.658;23.256;2023-12-22T02:56:45;92118.22;;;0.84;100.00
41690;BME280;27372;42.658;23.256;2023-12-22T02:59:11;92120.47;;;0.80;100.00
41690;BME280;27372;42.658;23.256;2023-12-22T03:01:36;92093.81;;;0.98;100.00
41690;BME280;27372;42.658;23.256;2023-12-22T03:04:02;92090.84;;;1.13;100.00
41690;BME280;27372;42.658;23.256;2023-12-22T03:06:27;92092.84;;;1.11;100.00
41690;BME280;27372;42.658;23.256;2023-12-22T03:08:52;92102.03;;;1.07;100.00
41690;BME280;27372;42.658;23.256;2023-12-22T03:11:18;92095.56;;;1.16;99.86
41690;BME280;27372;42.658;23.256;2023-12-22T03:13:43;92088.88;;;0.97;100.00
41690;BME280;27372;42.658;23.256;2023-12-22T03:16:09;92104.22;;;0.91;100.00
41690;BME280;27372;42.658;23.256;2023-12-22T03:18:34;92113.19;;;1.07;100.00
41690;BME280;27372;42.658;23.256;2023-12-22T03:20:59;92107.13;;;1.14;100.00
41690;BME280;27372;42.658;23.256;2023-12-22T03:23:25;92132.97;;;1.32;100.00
41690;BME280;27372;42.658;23.256;2023-12-22T03:25:50;92111.81;;;1.35;100.00
41690;BME280;27372;42.658;23.256;2023-12-22T03:28:16;92115.88;;;1.13;100.00
41690;BME280;27372;42.658;23.256;2023-12-22T03:30:41;92121.13;;;1.24;100.00
41690;BME280;27372;42.658;23.256;2023-12-22T03:33:07;92124.94;;;1.22;100.00
41690;BME280;27372;42.658;23.256;2023-12-22T03:35:32;92130.00;;;1.59;99.92
41690;BME280;27372;42.658;23.256;2023-12-22T03:37:58;92125.84;;;1.58;99.65
41690;BME280;27372;42.658;23.256;2023-12-22T03:40:23;92122.13;;;1.23;100.00
41690;BME280;27372;42.658;23.256;2023-12-22T03:42:48;92126.53;;;1.04;100.00
41690;BME280;27372;42.658;23.256;2023-12-22T03:45:14;92116.41;;;1.03;100.00
41690;BME280;27372;42.658;23.256;2023-12-22T03:47:39;92113.59;;;0.74;100.00
41690;BME280;27372;42.658;23.256;2023-12-22T03:50:05;92116.81;;;0.88;100.00
41690;BME280;27372;42.658;23.256;2023-12-22T03:52:32;92113.69;;;1.16;100.00
41690;BME280;27372;42.658;23.256;2023-12-22T03:54:57;92106.28;;;1.20;100.00
41690;BME280;27372;42.658;23.256;2023-12-22T03:57:22;92113.09;;;1.45;100.00
41690;BME280;27372;42.658;23.256;2023-12-22T03:59:48;92111.91;;;1.59;100.00
41690;BME280;27372;42.658;23.256;2023-12-22T04:02:13;92117.09;;;1.71;100.00
41690;BME280;27372;42.658;23.256;2023-12-22T04:04:39;92121.75;;;1.81;100.00
41690;BME280;27372;42.658;23.256;2023-12-22T04:07:04;92116.47;;;1.88;100.00
41690;BME280;27372;42.658;23.256;2023-12-22T04:09:30;92115.59;;;1.63;100.00
41690;BME280;27372;42.658;23.256;2023-12-22T04:11:55;92116.81;;;1.91;100.00
41690;BME280;27372;42.658;23.256;2023-12-22T04:14:21;92127.38;;;1.90;100.00
41690;BME280;27372;42.658;23.256;2023-12-22T04:16:46;92119.72;;;2.07;100.00
41690;BME280;27372;42.658;23.256;2023-12-22T04:19:12;92121.88;;;2.10;100.00
41690;BME280;27372;42.658;23.256;2023-12-22T04:21:37;92116.81;;;2.27;100.00
41690;BME280;27372;42.658;23.256;2023-12-22T04:24:03;92109.16;;;2.20;100.00
41690;BME280;27372;42.658;23.256;2023-12-22T04:26:29;92110.03;;;1.90;100.00
41690;BME280;27372;42.658;23.256;2023-12-22T04:28:55;92103.47;;;1.76;100.00
41690;BME280;27372;42.658;23.256;2023-12-22T04:31:20;92095.19;;;1.13;100.00
41690;BME280;27372;42.658;23.256;2023-12-22T04:33:45;92101.31;;;1.61;100.00
41690;BME280;27372;42.658;23.256;2023-12-22T04:36:11;92114.06;;;1.86;100.00
41690;BME280;27372;42.658;23.256;2023-12-22T04:38:36;92099.88;;;1.89;100.00
41690;BME280;27372;42.658;23.256;2023-12-22T04:41:02;92092.16;;;2.12;100.00
41690;BME280;27372;42.658;23.256;2023-12-22T04:43:27;92089.06;;;1.68;100.00
41690;BME280;27372;42.658;23.256;2023-12-22T04:45:53;92087.97;;;1.99;100.00
41690;BME280;27372;42.658;23.256;2023-12-22T04:48:19;92079.75;;;1.91;100.00
41690;BME280;27372;42.658;23.256;2023-12-22T04:50:44;92078.97;;;2.14;100.00
41690;BME280;27372;42.658;23.256;2023-12-22T04:53:10;92075.03;;;1.88;100.00
41690;BME280;27372;42.658;23.256;2023-12-22T04:55:35;92070.09;;;1.98;100.00
41690;BME280;27372;42.658;23.256;2023-12-22T04:58:01;92075.72;;;1.83;100.00
41690;BME280;27372;42.658;23.256;2023-12-22T05:00:26;92066.69;;;2.09;100.00
41690;BME280;27372;42.658;23.256;2023-12-22T05:02:52;92070.06;;;1.74;100.00
41690;BME280;27372;42.658;23.256;2023-12-22T05:05:17;92063.75;;;1.70;100.00
41690;BME280;27372;42.658;23.256;2023-12-22T05:07:42;92067.56;;;1.67;100.00
41690;BME280;27372;42.658;23.256;2023-12-22T05:10:08;92057.88;;;1.63;100.00
41690;BME280;27372;42.658;23.256;2023-12-22T05:12:33;92065.31;;;1.71;100.00
41690;BME280;27372;42.658;23.256;2023-12-22T05:14:59;92061.63;;;1.79;100.00
41690;BME280;27372;42.658;23.256;2023-12-22T05:17:25;92073.34;;;2.05;100.00
41690;BME280;27372;42.658;23.256;2023-12-22T05:19:50;92065.59;;;2.05;100.00
41690;BME280;27372;42.658;23.256;2023-12-22T05:22:15;92060.28;;;2.12;100.00
41690;BME280;27372;42.658;23.256;2023-12-22T05:24:41;92063.84;;;1.63;100.00
41690;BME280;27372;42.658;23.256;2023-12-22T05:27:06;92069.25;;;1.62;100.00
41690;BME280;27372;42.658;23.256;2023-12-22T05:29:32;92060.16;;;1.71;100.00
41690;BME280;27372;42.658;23.256;2023-12-22T05:31:57;92069.91;;;1.45;100.00
41690;BME280;27372;42.658;23.256;2023-12-22T05:34:22;92071.31;;;1.72;100.00
41690;BME280;27372;42.658;23.256;2023-12-22T05:36:48;92062.84;;;2.36;100.00
41690;BME280;27372;42.658;23.256;2023-12-22T05:39:13;92070.78;;;3.39;100.00
41690;BME280;27372;42.658;23.256;2023-12-22T05:41:38;92073.56;;;3.84;100.00
41690;BME280;27372;42.658;23.256;2023-12-22T05:44:07;92046.88;;;4.06;100.00
41690;BME280;27372;42.658;23.256;2023-12-22T05:46:38;92042.94;;;4.20;100.00
41690;BME280;27372;42.658;23.256;2023-12-22T05:49:04;92041.78;;;4.50;100.00
41690;BME280;27372;42.658;23.256;2023-12-22T05:51:36;92056.16;;;4.58;100.00
41690;BME280;27372;42.658;23.256;2023-12-22T05:54:02;92045.94;;;4.51;100.00
41690;BME280;27372;42.658;23.256;2023-12-22T05:56:27;92049.59;;;4.33;100.00
41690;BME280;27372;42.658;23.256;2023-12-22T05:58:53;92043.97;;;4.02;100.00
41690;BME280;27372;42.658;23.256;2023-12-22T06:01:18;92051.34;;;4.27;100.00
41690;BME280;27372;42.658;23.256;2023-12-22T06:03:47;92039.88;;;4.06;100.00
41690;BME280;27372;42.658;23.256;2023-12-22T06:06:13;92043.34;;;3.61;98.82
41690;BME280;27372;42.658;23.256;2023-12-22T06:08:39;92052.81;;;2.92;99.34
41690;BME280;27372;42.658;23.256;2023-12-22T06:11:05;92058.09;;;2.97;98.94
41690;BME280;27372;42.658;23.256;2023-12-22T06:13:30;92063.78;;;2.17;100.00
41690;BME280;27372;42.658;23.256;2023-12-22T06:15:56;92052.03;;;2.15;100.00
41690;BME280;27372;42.658;23.256;2023-12-22T06:18:21;92083.25;;;1.96;100.00
41690;BME280;27372;42.658;23.256;2023-12-22T06:20:47;92087.06;;;1.82;100.00
41690;BME280;27372;42.658;23.256;2023-12-22T06:23:12;92074.56;;;1.79;100.00
41690;BME280;27372;42.658;23.256;2023-12-22T06:25:38;92069.47;;;1.60;100.00
41690;BME280;27372;42.658;23.256;2023-12-22T06:28:03;92071.72;;;1.57;100.00
41690;BME280;27372;42.658;23.256;2023-12-22T06:30:29;92083.63;;;1.46;100.00
41690;BME280;27372;42.658;23.256;2023-12-22T06:32:55;92097.97;;;1.72;100.00
41690;BME280;27372;42.658;23.256;2023-12-22T06:35:21;92071.25;;;1.48;100.00
41690;BME280;27372;42.658;23.256;2023-12-22T06:37:49;92086.94;;;1.65;100.00
41690;BME280;27372;42.658;23.256;2023-12-22T06:40:15;92101.13;;;1.62;100.00
41690;BME280;27372;42.658;23.256;2023-12-22T06:42:40;92077.88;;;1.44;100.00
41690;BME280;27372;42.658;23.256;2023-12-22T06:45:06;92093.25;;;1.81;100.00
41690;BME280;27372;42.658;23.256;2023-12-22T06:47:32;92098.78;;;1.96;100.00
41690;BME280;27372;42.658;23.256;2023-12-22T06:49:57;92091.69;;;1.92;100.00
41690;BME280;27372;42.658;23.256;2023-12-22T06:52:22;92087.06;;;1.82;100.00
41690;BME280;27372;42.658;23.256;2023-12-22T06:54:48;92091.91;;;2.02;100.00
41690;BME280;27372;42.658;23.256;2023-12-22T06:57:13;92081.75;;;1.77;100.00
41690;BME280;27372;42.658;23.256;2023-12-22T06:59:39;92111.63;;;1.91;100.00
41690;BME280;27372;42.658;23.256;2023-12-22T07:02:04;92085.06;;;1.96;100.00
41690;BME280;27372;42.658;23.256;2023-12-22T07:04:31;92092.25;;;2.06;100.00
41690;BME280;27372;42.658;23.256;2023-12-22T07:06:56;92098.59;;;2.33;100.00
41690;BME280;27372;42.658;23.256;2023-12-22T07:11:51;92101.38;;;2.32;100.00
41690;BME280;27372;42.658;23.256;2023-12-22T07:14:21;92100.38;;;2.33;100.00
41690;BME280;27372;42.658;23.256;2023-12-22T07:16:47;92118.28;;;2.46;100.00
41690;BME280;27372;42.658;23.256;2023-12-22T07:19:12;92116.25;;;2.48;100.00
41690;BME280;27372;42.658;23.256;2023-12-22T07:21:38;92110.72;;;2.33;100.00
41690;BME280;27372;42.658;23.256;2023-12-22T07:24:05;92097.31;;;2.12;100.00
41690;BME280;27372;42.658;23.256;2023-12-22T07:26:30;92111.84;;;2.25;100.00
41690;BME280;27372;42.658;23.256;2023-12-22T07:28:56;92121.09;;;2.45;100.00
41690;BME280;27372;42.658;23.256;2023-12-22T07:31:21;92115.66;;;2.82;100.00
41690;BME280;27372;42.658;23.256;2023-12-22T07:33:47;92101.13;;;2.69;100.00
41690;BME280;27372;42.658;23.256;2023-12-22T07:36:12;92115.56;;;2.65;100.00
41690;BME280;27372;42.658;23.256;2023-12-22T07:38:38;92109.97;;;2.85;100.00
41690;BME280;27372;42.658;23.256;2023-12-22T07:41:07;92130.09;;;3.19;100.00
41690;BME280;27372;42.658;23.256;2023-12-22T07:43:33;92105.63;;;2.62;100.00
41690;BME280;27372;42.658;23.256;2023-12-22T07:45:58;92127.44;;;3.02;100.00
41690;BME280;27372;42.658;23.256;2023-12-22T07:48:24;92127.53;;;3.07;100.00
41690;BME280;27372;42.658;23.256;2023-12-22T07:50:49;92127.63;;;3.12;100.00
41690;BME280;27372;42.658;23.256;2023-12-22T07:53:15;92129.00;;;3.03;100.00
41690;BME280;27372;42.658;23.256;2023-12-22T07:55:40;92128.47;;;3.30;100.00
41690;BME280;27372;42.658;23.256;2023-12-22T07:58:06;92128.78;;;3.04;100.00
41690;BME280;27372;42.658;23.256;2023-12-22T08:00:32;92130.31;;;2.17;100.00
41690;BME280;27372;42.658;23.256;2023-12-22T08:02:57;92145.31;;;2.39;100.00
41690;BME280;27372;42.658;23.256;2023-12-22T08:05:23;92167.19;;;2.55;100.00
41690;BME280;27372;42.658;23.256;2023-12-22T08:07:48;92148.91;;;2.49;100.00
41690;BME280;27372;42.658;23.256;2023-12-22T08:10:14;92170.78;;;2.77;100.00
41690;BME280;27372;42.658;23.256;2023-12-22T08:12:40;92162.31;;;2.35;100.00
41690;BME280;27372;42.658;23.256;2023-12-22T08:15:06;92175.84;;;2.37;100.00
41690;BME280;27372;42.658;23.256;2023-12-22T08:17:32;92185.66;;;2.58;100.00
41690;BME280;27372;42.658;23.256;2023-12-22T08:19:58;92168.88;;;2.49;100.00
41690;BME280;27372;42.658;23.256;2023-12-22T08:22:24;92179.22;;;2.49;100.00
41690;BME280;27372;42.658;23.256;2023-12-22T08:24:49;92192.41;;;2.59;100.00
41690;BME280;27372;42.658;23.256;2023-12-22T08:27:15;92181.03;;;2.60;100.00
41690;BME280;27372;42.658;23.256;2023-12-22T08:29:40;92185.97;;;2.26;100.00
41690;BME280;27372;42.658;23.256;2023-12-22T08:32:06;92152.97;;;2.10;100.00
41690;BME280;27372;42.658;23.256;2023-12-22T08:34:31;92189.03;;;2.35;100.00
41690;BME280;27372;42.658;23.256;2023-12-22T08:36:57;92197.03;;;2.57;100.00
41690;BME280;27372;42.658;23.256;2023-12-22T08:39:22;92179.03;;;2.62;100.00
41690;BME280;27372;42.658;23.256;2023-12-22T08:41:49;92180.66;;;3.04;100.00
41690;BME280;27372;42.658;23.256;2023-12-22T08:44:15;92180.25;;;2.48;100.00
41690;BME280;27372;42.658;23.256;2023-12-22T08:46:40;92178.75;;;2.76;100.00
41690;BME280;27372;42.658;23.256;2023-12-22T08:49:06;92175.53;;;2.57;100.00
41690;BME280;27372;42.658;23.256;2023-12-22T08:51:32;92166.72;;;2.22;100.00
41690;BME280;27372;42.658;23.256;2023-12-22T08:53:59;92173.72;;;2.69;100.00
41690;BME280;27372;42.658;23.256;2023-12-22T08:56:24;92170.91;;;2.71;100.00
41690;BME280;27372;42.658;23.256;2023-12-22T08:58:54;92179.03;;;3.27;100.00
41690;BME280;27372;42.658;23.256;2023-12-22T09:01:21;92169.31;;;3.34;100.00
41690;BME280;27372;42.658;23.256;2023-12-22T09:03:47;92183.66;;;3.66;100.00
41690;BME280;27372;42.658;23.256;2023-12-22T09:06:17;92192.97;;;4.98;100.00
41690;BME280;27372;42.658;23.256;2023-12-22T09:08:44;92199.09;;;4.35;100.00
41690;BME280;27372;42.658;23.256;2023-12-22T09:11:11;92224.59;;;4.22;100.00
41690;BME280;27372;42.658;23.256;2023-12-22T09:13:37;92213.56;;;3.68;100.00
41690;BME280;27372;42.658;23.256;2023-12-22T09:16:03;92218.94;;;3.38;100.00
41690;BME280;27372;42.658;23.256;2023-12-22T09:18:28;92228.25;;;3.10;100.00
41690;BME280;27372;42.658;23.256;2023-12-22T09:20:54;92215.03;;;3.23;100.00
41690;BME280;27372;42.658;23.256;2023-12-22T09:23:22;92213.44;;;3.63;100.00
41690;BME280;27372;42.658;23.256;2023-12-22T09:25:47;92223.69;;;3.70;100.00
41690;BME280;27372;42.658;23.256;2023-12-22T09:28:13;92219.94;;;4.07;100.00
41690;BME280;27372;42.658;23.256;2023-12-22T09:30:39;92217.06;;;4.37;100.00
41690;BME280;27372;42.658;23.256;2023-12-22T09:33:04;92219.41;;;4.39;100.00
41690;BME280;27372;42.658;23.256;2023-12-22T09:35:29;92212.81;;;4.48;100.00
41690;BME280;27372;42.658;23.256;2023-12-22T09:37:55;92200.81;;;4.47;100.00
41690;BME280;27372;42.658;23.256;2023-12-22T09:40:21;92209.50;;;4.53;100.00
41690;BME280;27372;42.658;23.256;2023-12-22T09:42:47;92222.72;;;4.34;100.00
41690;BME280;27372;42.658;23.256;2023-12-22T09:45:16;92202.16;;;4.32;100.00
41690;BME280;27372;42.658;23.256;2023-12-22T09:50:17;92200.34;;;4.33;100.00
41690;BME280;27372;42.658;23.256;2023-12-22T09:52:45;92184.81;;;4.38;100.00
41690;BME280;27372;42.658;23.256;2023-12-22T09:55:12;92190.97;;;4.32;100.00
41690;BME280;27372;42.658;23.256;2023-12-22T10:00:08;92162.22;;;4.39;100.00
41690;BME280;27372;42.658;23.256;2023-12-22T10:02:37;92177.13;;;4.26;100.00
41690;BME280;27372;42.658;23.256;2023-12-22T10:05:03;92163.50;;;4.36;100.00
41690;BME280;27372;42.658;23.256;2023-12-22T10:07:30;92171.34;;;4.24;100.00
41690;BME280;27372;42.658;23.256;2023-12-22T10:09:55;92178.94;;;4.26;100.00
41690;BME280;27372;42.658;23.256;2023-12-22T10:12:22;92179.47;;;4.28;100.00
41690;BME280;27372;42.658;23.256;2023-12-22T10:14:48;92176.88;;;4.28;100.00
41690;BME280;27372;42.658;23.256;2023-12-22T10:17:15;92157.97;;;4.32;100.00
41690;BME280;27372;42.658;23.256;2023-12-22T10:19:42;92168.44;;;4.38;100.00
41690;BME280;27372;42.658;23.256;2023-12-22T10:22:07;92146.94;;;4.42;100.00
41690;BME280;27372;42.658;23.256;2023-12-22T10:24:43;92159.78;;;4.66;100.00
41690;BME280;27372;42.658;23.256;2023-12-22T10:27:11;92147.19;;;4.41;100.00
41690;BME280;27372;42.658;23.256;2023-12-22T10:29:37;92151.16;;;4.65;100.00
41690;BME280;27372;42.658;23.256;2023-12-22T10:32:04;92145.97;;;4.48;100.00
41690;BME280;27372;42.658;23.256;2023-12-22T10:34:30;92160.25;;;4.46;100.00
41690;BME280;27372;42.658;23.256;2023-12-22T10:36:56;92144.25;;;4.54;100.00
41690;BME280;27372;42.658;23.256;2023-12-22T10:39:22;92144.97;;;4.49;100.00
41690;BME280;27372;42.658;23.256;2023-12-22T10:41:48;92140.16;;;4.58;100.00
41690;BME280;27372;42.658;23.256;2023-12-22T10:44:15;92120.34;;;4.35;100.00
41690;BME280;27372;42.658;23.256;2023-12-22T10:46:42;92107.53;;;4.90;100.00
41690;BME280;27372;42.658;23.256;2023-12-22T10:49:07;92112.97;;;5.33;100.00
41690;BME280;27372;42.658;23.256;2023-12-22T10:51:33;92095.59;;;5.38;100.00
41690;BME280;27372;42.658;23.256;2023-12-22T10:54:04;92096.47;;;5.77;100.00
41690;BME280;27372;42.658;23.256;2023-12-22T10:56:30;92095.13;;;6.01;100.00
41690;BME280;27372;42.658;23.256;2023-12-22T10:58:57;92093.19;;;6.19;100.00
41690;BME280;27372;42.658;23.256;2023-12-22T11:01:27;92095.53;;;5.88;100.00
41690;BME280;27372;42.658;23.256;2023-12-22T11:03:57;92121.94;;;5.69;100.00
41690;BME280;27372;42.658;23.256;2023-12-22T11:06:27;92105.97;;;5.93;98.90
41690;BME280;27372;42.658;23.256;2023-12-22T11:08:56;92081.06;;;6.35;96.43
41690;BME280;27372;42.658;23.256;2023-12-22T11:11:31;92056.41;;;6.58;92.02
41690;BME280;27372;42.658;23.256;2023-12-22T11:13:59;92062.88;;;7.09;94.46
41690;BME280;27372;42.658;23.256;2023-12-22T11:16:25;92057.94;;;7.12;88.88
41690;BME280;27372;42.658;23.256;2023-12-22T11:18:53;92060.09;;;7.36;86.61
41690;BME280;27372;42.658;23.256;2023-12-22T11:21:22;92071.91;;;7.70;85.91
41690;BME280;27372;42.658;23.256;2023-12-22T11:23:49;92075.41;;;7.02;89.02
41690;BME280;27372;42.658;23.256;2023-12-22T11:26:17;92078.13;;;6.74;90.04
41690;BME280;27372;42.658;23.256;2023-12-22T11:28:45;92072.00;;;6.53;89.00
41690;BME280;27372;42.658;23.256;2023-12-22T11:31:11;92080.09;;;6.51;89.37
41690;BME280;27372;42.658;23.256;2023-12-22T11:33:40;92091.63;;;6.18;92.34
41690;BME280;27372;42.658;23.256;2023-12-22T11:36:08;92096.97;;;6.01;91.84
41690;BME280;27372;42.658;23.256;2023-12-22T11:38:35;92094.22;;;6.18;89.13
41690;BME280;27372;42.658;23.256;2023-12-22T11:41:01;92119.38;;;6.02;94.94
41690;BME280;27372;42.658;23.256;2023-12-22T11:43:27;92112.97;;;5.87;93.80
41690;BME280;27372;42.658;23.256;2023-12-22T11:45:52;92126.34;;;5.96;93.90
41690;BME280;27372;42.658;23.256;2023-12-22T11:48:18;92136.09;;;5.79;98.72
41690;BME280;27372;42.658;23.256;2023-12-22T11:50:44;92122.75;;;5.75;94.60
41690;BME280;27372;42.658;23.256;2023-12-22T11:53:25;92124.94;;;5.83;90.96
41690;BME280;27372;42.658;23.256;2023-12-22T11:55:58;92138.56;;;5.96;90.88
41690;BME280;27372;42.658;23.256;2023-12-22T11:58:38;92122.91;;;5.90;90.36
41690;BME280;27372;42.658;23.256;2023-12-22T12:01:13;92134.50;;;5.78;91.89
41690;BME280;27372;42.658;23.256;2023-12-22T12:03:54;92136.66;;;5.86;91.38
41690;BME280;27372;42.658;23.256;2023-12-22T12:08:56;92155.47;;;5.66;94.98
41690;BME280;27372;42.658;23.256;2023-12-22T12:11:22;92154.91;;;5.58;93.71
41690;BME280;27372;42.658;23.256;2023-12-22T12:13:49;92165.84;;;5.60;93.57
41690;BME280;27372;42.658;23.256;2023-12-22T12:16:19;92156.66;;;5.53;93.90
41690;BME280;27372;42.658;23.256;2023-12-22T12:18:46;92178.63;;;5.62;92.52
41690;BME280;27372;42.658;23.256;2023-12-22T12:21:12;92158.59;;;5.63;91.47
41690;BME280;27372;42.658;23.256;2023-12-22T12:23:38;92139.41;;;5.47;92.91
41690;BME280;27372;42.658;23.256;2023-12-22T12:26:07;92122.56;;;5.54;90.69
41690;BME280;27372;42.658;23.256;2023-12-22T12:28:34;92129.03;;;5.52;89.80
41690;BME280;27372;42.658;23.256;2023-12-22T12:31:09;92108.72;;;5.49;90.55
41690;BME280;27372;42.658;23.256;2023-12-22T12:33:35;92152.25;;;5.53;88.26
41690;BME280;27372;42.658;23.256;2023-12-22T12:36:02;92091.84;;;5.56;88.54
41690;BME280;27372;42.658;23.256;2023-12-22T12:38:48;92085.38;;;5.59;87.40
41690;BME280;27372;42.658;23.256;2023-12-22T12:41:31;92062.34;;;5.51;88.14
41690;BME280;27372;42.658;23.256;2023-12-22T12:43:58;92061.13;;;5.58;88.80
41690;BME280;27372;42.658;23.256;2023-12-22T12:46:23;92052.59;;;5.63;87.66
41690;BME280;27372;42.658;23.256;2023-12-22T12:49:02;92049.78;;;5.70;89.76
41690;BME280;27372;42.658;23.256;2023-12-22T12:51:29;92040.38;;;5.69;89.45
41690;BME280;27372;42.658;23.256;2023-12-22T12:53:55;92059.81;;;5.88;88.11
41690;BME280;27372;42.658;23.256;2023-12-22T12:56:21;92092.84;;;5.78;85.97
41690;BME280;27372;42.658;23.256;2023-12-22T12:58:46;92098.44;;;5.64;84.00
41690;BME280;27372;42.658;23.256;2023-12-22T13:01:12;92112.59;;;5.73;80.59
41690;BME280;27372;42.658;23.256;2023-12-22T13:03:54;92119.00;;;5.93;74.46
41690;BME280;27372;42.658;23.256;2023-12-22T13:06:20;92125.44;;;5.85;76.83